Time;durP1;ratioP1;P1;durP2;ratioP2;P2;SDS_P1;SDS_P2;PMS_P1;PMS_P2;Temp;Humidity;BMP_temperature;BMP_pressure;BME280_temperature;BME280_humidity;BME280_pressure;Samples;Min_cycle;Max_cycle;Signal;HPM_P1;HPM_P2
2022/01/10 00:01:06;;;;;;;364.92;260.52;;;;;;;24.63;40.56;100895.44;5060367;28;20091;-41
2022/01/10 00:03:34;;;;;;;359.95;265.20;;;;;;;24.66;40.99;100905.97;5060982;28;20602;-43
2022/01/10 00:06:03;;;;;;;373.77;266.55;;;;;;;24.62;40.87;100897.22;5061508;28;20056;-42
2022/01/10 00:08:37;;;;;;;359.80;264.40;;;;;;;24.61;40.69;100903.31;5060865;28;20499;-42
2022/01/10 00:11:07;;;;;;;368.65;264.90;;;;;;;24.58;41.08;100900.66;5061259;28;20113;-42
2022/01/10 00:13:35;;;;;;;367.65;267.15;;;;;;;24.65;40.56;100894.63;5060904;28;20044;-41
2022/01/10 00:19:27;;;;;;;364.42;266.33;;;;;;;24.58;41.05;100917.25;5060656;28;20090;-41
2022/01/10 00:21:55;;;;;;;369.38;272.02;;;;;;;24.57;40.89;100919.88;5060678;28;20033;-42
2022/01/10 00:24:24;;;;;;;364.95;265.50;;;;;;;24.58;40.78;100921.63;5061279;28;20052;-42
2022/01/10 00:26:53;;;;;;;369.58;270.13;;;;;;;24.54;40.83;100919.84;5060994;28;20148;-41
2022/01/10 00:29:22;;;;;;;371.08;265.50;;;;;;;24.53;41.09;100932.09;5081631;28;21104;-41
2022/01/10 00:31:50;;;;;;;355.42;264.02;;;;;;;24.55;40.76;100930.38;5104152;28;20039;-42
2022/01/10 00:34:19;;;;;;;370.45;266.83;;;;;;;24.54;41.06;100931.22;5104165;28;20028;-42
2022/01/10 00:37:22;;;;;;;348.70;255.90;;;;;;;24.48;41.22;100925.03;5103037;28;20031;-42
2022/01/10 00:39:51;;;;;;;364.95;264.13;;;;;;;24.51;40.76;100933.81;5103080;28;20043;-41
2022/01/10 00:42:19;;;;;;;355.35;259.08;;;;;;;24.43;41.40;100938.97;5102510;28;20118;-41
2022/01/10 00:44:51;;;;;;;370.48;269.02;;;;;;;24.43;40.98;100938.97;5103748;28;20027;-41
2022/01/10 00:47:20;;;;;;;370.25;267.67;;;;;;;24.44;41.12;100945.09;5103929;28;20138;-42
2022/01/10 00:49:49;;;;;;;361.00;262.50;;;;;;;24.47;40.91;100945.13;5102712;28;20027;-41
2022/01/10 00:52:18;;;;;;;371.10;265.15;;;;;;;24.48;40.69;100944.25;5102735;28;20028;-41
2022/01/10 00:54:46;;;;;;;355.23;257.65;;;;;;;24.45;40.92;100941.59;5103935;28;20544;-42
2022/01/10 00:57:15;;;;;;;365.50;262.45;;;;;;;24.39;41.42;100936.31;5103936;28;20032;-41
2022/01/10 00:59:43;;;;;;;366.00;264.27;;;;;;;24.45;41.10;100945.97;5102248;28;20096;-41
2022/01/10 01:02:11;;;;;;;352.92;261.75;;;;;;;24.42;40.93;100950.31;5103816;28;20024;-41
2022/01/10 01:04:41;;;;;;;366.00;264.58;;;;;;;24.47;41.20;100944.25;5118222;28;20136;-42
2022/01/10 01:07:12;;;;;;;367.98;265.05;;;;;;;24.43;40.91;100941.59;5124059;28;20043;-42
2022/01/10 01:09:42;;;;;;;355.20;259.25;;;;;;;24.45;40.86;100949.47;5124273;28;20817;-42
2022/01/10 01:12:19;;;;;;;372.83;267.83;;;;;;;24.41;41.36;100951.19;5124050;28;20039;-42
2022/01/10 01:25:57;;;;;;;369.00;267.35;;;;;;;24.30;41.32;100955.44;5112185;28;20070;-42
2022/01/10 01:31:46;;;;;;;338.83;252.45;;;;;;;24.32;41.65;100969.44;5123816;28;20054;-48
2022/01/10 01:34:17;;;;;;;383.80;271.17;;;;;;;24.33;41.66;100967.69;5124025;28;20019;-42
2022/01/10 01:36:47;;;;;;;362.70;261.33;;;;;;;24.27;41.63;100979.00;5124142;28;20031;-41
2022/01/10 01:39:21;;;;;;;362.35;263.90;;;;;;;24.30;41.33;100984.28;5124164;28;20030;-42
2022/01/10 01:41:51;;;;;;;370.75;267.90;;;;;;;24.31;41.35;100986.03;5124039;28;20051;-41
2022/01/10 01:44:20;;;;;;;359.02;259.15;;;;;;;24.30;41.38;100988.63;5124071;28;20042;-42
2022/01/10 01:46:47;;;;;;;374.55;268.20;;;;;;;24.28;41.41;100994.72;5105551;28;20039;-43
2022/01/10 01:49:16;;;;;;;364.90;265.95;;;;;;;24.29;41.34;100995.63;5123278;28;20361;-42
2022/01/10 01:51:45;;;;;;;377.75;269.15;;;;;;;24.32;41.16;101006.16;5125650;27;20433;-42
2022/01/10 01:54:14;;;;;;;364.02;262.35;;;;;;;24.27;41.77;101006.06;5127274;27;20096;-42
2022/01/10 01:56:43;;;;;;;365.33;268.45;;;;;;;24.27;41.46;100999.97;5127405;27;20400;-42
2022/01/10 01:59:12;;;;;;;364.33;268.63;;;;;;;24.33;41.32;101010.50;5127502;27;20038;-42
2022/01/10 02:01:40;;;;;;;372.50;270.98;;;;;;;24.34;41.33;101014.88;5127716;27;20106;-41
2022/01/10 02:04:09;;;;;;;378.52;273.77;;;;;;;24.27;41.55;101020.94;5126675;27;20519;-41
2022/01/10 02:06:38;;;;;;;378.42;271.10;;;;;;;24.31;41.42;101022.75;5127252;27;20526;-42
2022/01/10 02:09:07;;;;;;;374.30;270.73;;;;;;;24.38;41.25;101029.81;5127283;27;20046;-42
2022/01/10 02:11:35;;;;;;;377.30;274.27;;;;;;;24.28;41.39;101028.81;5126120;27;20074;-41
2022/01/10 02:14:04;;;;;;;376.58;272.25;;;;;;;24.23;41.41;101032.25;5127029;27;20906;-41
2022/01/10 02:16:42;;;;;;;378.38;277.60;;;;;;;24.21;41.69;101034.84;5126960;27;20205;-41
2022/01/10 02:19:11;;;;;;;380.27;275.65;;;;;;;24.19;41.77;101051.41;5126989;27;20027;-41
2022/01/10 02:21:40;;;;;;;379.50;277.13;;;;;;;24.26;41.52;101043.63;5127075;27;20023;-41
2022/01/10 02:24:08;;;;;;;383.60;276.83;;;;;;;24.25;41.88;101056.72;5126952;27;20031;-41
2022/01/10 02:26:37;;;;;;;388.38;275.38;;;;;;;24.23;41.59;101061.06;5126165;27;20392;-42
2022/01/10 02:29:06;;;;;;;386.95;275.52;;;;;;;24.20;41.91;101061.91;5125721;27;20480;-42
2022/01/10 02:31:40;;;;;;;384.08;276.85;;;;;;;24.20;42.06;101061.91;5125740;27;20031;-42
2022/01/10 02:34:09;;;;;;;382.98;274.25;;;;;;;24.26;41.85;101063.75;5126787;27;20074;-41
2022/01/10 02:36:38;;;;;;;372.02;273.65;;;;;;;24.18;41.98;101063.63;5126855;27;20115;-42
2022/01/10 02:39:09;;;;;;;393.38;283.90;;;;;;;24.23;41.88;101071.56;5126841;27;20063;-41
2022/01/10 02:41:40;;;;;;;367.40;272.42;;;;;;;24.19;41.98;101067.13;5108797;27;20033;-41
2022/01/10 02:44:12;;;;;;;373.05;272.45;;;;;;;24.17;41.86;101079.31;5126564;27;20054;-42
2022/01/10 02:46:42;;;;;;;382.48;273.40;;;;;;;24.15;41.76;101073.22;5126617;27;20042;-43
2022/01/10 02:49:13;;;;;;;371.70;270.02;;;;;;;24.14;41.98;101074.94;5126054;27;20042;-42
2022/01/10 02:51:42;;;;;;;373.58;272.73;;;;;;;24.17;42.01;101074.97;5126251;27;20065;-41
2022/01/10 02:54:14;;;;;;;376.83;269.27;;;;;;;24.17;41.89;101076.69;5108488;27;20024;-41
2022/01/10 02:56:53;;;;;;;381.58;273.27;;;;;;;24.13;41.95;101086.28;5126354;27;20303;-41
2022/01/10 02:59:22;;;;;;;380.55;275.13;;;;;;;24.10;42.14;101089.75;5126578;27;20027;-42
2022/01/10 03:01:50;;;;;;;365.80;265.23;;;;;;;24.08;42.13;101085.31;5126322;27;20042;-44
2022/01/10 03:04:19;;;;;;;375.95;275.40;;;;;;;24.08;42.01;101090.56;5125142;27;20054;-42
2022/01/10 03:06:48;;;;;;;381.50;270.25;;;;;;;24.06;41.81;101090.53;5126336;27;20126;-42
2022/01/10 03:09:17;;;;;;;365.67;264.27;;;;;;;24.08;42.11;101099.31;5126241;27;20106;-42
2022/01/10 03:11:46;;;;;;;371.42;271.63;;;;;;;24.06;42.27;101103.66;5125712;27;20023;-42
2022/01/10 03:14:14;;;;;;;377.77;272.90;;;;;;;24.07;41.96;101108.03;5107406;27;20027;-42
2022/01/10 03:16:43;;;;;;;372.25;270.23;;;;;;;24.12;41.74;101111.63;5125831;27;20035;-43
2022/01/10 03:19:10;;;;;;;377.90;272.13;;;;;;;24.09;42.15;101108.94;5125802;27;20027;-41
2022/01/10 03:21:39;;;;;;;378.92;266.20;;;;;;;24.06;42.12;101119.38;5125969;27;20031;-42
2022/01/10 03:24:07;;;;;;;366.60;262.50;;;;;;;24.04;42.24;101114.97;5125934;27;20484;-42
2022/01/10 03:26:36;;;;;;;370.85;270.45;;;;;;;24.04;41.81;101120.22;5125701;27;20035;-41
2022/01/10 03:29:05;;;;;;;382.70;273.13;;;;;;;24.03;42.14;101132.44;5125072;27;20038;-43
2022/01/10 03:31:33;;;;;;;370.33;268.30;;;;;;;23.95;42.05;101107.81;5125494;27;20443;-42
2022/01/10 03:34:02;;;;;;;375.48;269.58;;;;;;;23.99;42.01;101130.63;5125129;27;20088;-42
2022/01/10 03:36:30;;;;;;;368.88;266.90;;;;;;;23.95;42.47;101123.53;5125761;27;20472;-42
2022/01/10 03:38:59;;;;;;;373.00;271.90;;;;;;;23.96;42.54;101141.94;5125530;27;20083;-42
2022/01/10 03:41:27;;;;;;;379.80;274.52;;;;;;;24.00;42.31;101139.38;5125565;27;20038;-48
2022/01/10 03:43:56;;;;;;;380.33;278.08;;;;;;;23.96;42.39;101143.66;5125241;27;20105;-43
2022/01/10 03:46:24;;;;;;;371.92;268.85;;;;;;;23.99;42.30;101138.50;5124898;27;20023;-43
2022/01/10 03:48:53;;;;;;;394.70;281.90;;;;;;;24.04;42.25;101149.03;5125298;27;20027;-42
2022/01/10 03:51:20;;;;;;;385.42;272.67;;;;;;;24.01;42.14;101151.63;5125188;27;20030;-42
2022/01/10 03:53:49;;;;;;;376.17;271.48;;;;;;;24.01;42.20;101155.09;5125223;27;20476;-50
2022/01/10 03:56:17;;;;;;;376.45;275.48;;;;;;;24.05;41.88;101161.28;5124733;27;20023;-44
2022/01/10 03:58:46;;;;;;;382.15;279.67;;;;;;;24.01;42.23;101165.59;5125303;27;20467;-41
2022/01/10 04:01:15;;;;;;;378.98;274.75;;;;;;;24.05;42.11;101159.53;5124834;27;20519;-41
2022/01/10 04:03:43;;;;;;;390.20;284.13;;;;;;;24.02;42.16;101169.09;5124677;27;20089;-42
2022/01/10 04:06:12;;;;;;;391.67;282.98;;;;;;;24.00;42.53;101168.19;5125171;27;20114;-43
2022/01/10 04:08:41;;;;;;;391.48;280.20;;;;;;;23.99;42.48;101177.81;5125147;27;20080;-48
2022/01/10 04:11:09;;;;;;;397.67;284.00;;;;;;;24.04;42.09;101176.13;5124780;27;20027;-50
2022/01/10 04:13:39;;;;;;;383.15;280.98;;;;;;;23.99;42.47;101183.06;5124092;27;20031;-42
2022/01/10 04:16:07;;;;;;;395.90;285.02;;;;;;;24.00;42.46;101182.16;5124930;27;20027;-51
2022/01/10 04:18:35;;;;;;;388.40;278.50;;;;;;;23.95;42.25;101176.81;5124561;27;20503;-41
2022/01/10 04:21:04;;;;;;;402.08;293.13;;;;;;;23.96;42.41;101181.25;5124911;27;20143;-42
2022/01/10 04:23:33;;;;;;;393.67;288.35;;;;;;;24.05;42.19;101177.03;5124878;27;20023;-41
2022/01/10 04:26:01;;;;;;;407.05;296.92;;;;;;;23.99;42.30;101184.78;5124632;27;20122;-41
2022/01/10 04:28:29;;;;;;;395.30;287.02;;;;;;;24.00;42.26;101190.03;5124368;27;20448;-41
2022/01/10 04:30:57;;;;;;;398.40;290.02;;;;;;;24.01;42.09;101183.94;5106061;28;20052;-42
2022/01/10 04:33:29;;;;;;;401.02;289.45;;;;;;;23.93;42.72;101183.75;5124415;27;20023;-41
2022/01/10 04:35:58;;;;;;;410.08;302.30;;;;;;;23.99;42.24;101195.25;5124286;27;20480;-42
2022/01/10 04:38:26;;;;;;;402.90;291.33;;;;;;;23.96;42.27;101194.34;5106301;27;20106;-43
2022/01/10 04:40:55;;;;;;;395.65;277.17;;;;;;;23.89;42.66;101200.31;5125003;27;20033;-42
2022/01/10 04:43:23;;;;;;;396.88;288.27;;;;;;;23.89;42.53;101199.41;5124376;27;20564;-48
2022/01/10 04:45:52;;;;;;;391.02;287.60;;;;;;;23.89;42.83;101200.31;5124318;28;20126;-45
2022/01/10 04:48:21;;;;;;;396.48;287.25;;;;;;;23.89;42.40;101197.69;5124601;28;20103;-42
2022/01/10 04:51:33;;;;;;;393.38;282.02;;;;;;;23.85;42.94;101215.94;5124391;28;20137;-44
2022/01/10 04:53:39;;;;;;;404.85;292.92;;;;;;;23.87;42.92;101216.84;5113929;28;20050;-42
2022/01/10 04:56:07;;;;;;;401.33;291.15;;;;;;;23.91;42.66;101229.16;5123653;28;20027;-44
2022/01/10 04:58:36;;;;;;;400.27;287.80;;;;;;;23.85;42.53;101221.16;5123459;28;20030;-42
2022/01/10 05:01:04;;;;;;;396.63;285.73;;;;;;;23.88;42.78;101234.34;5123557;28;20090;-42
2022/01/10 05:03:33;;;;;;;400.13;291.45;;;;;;;23.82;42.96;101233.38;5124353;28;20023;-49
2022/01/10 05:06:02;;;;;;;391.55;283.67;;;;;;;23.85;42.40;101243.03;5124445;28;20027;-42
2022/01/10 05:08:30;;;;;;;394.95;287.67;;;;;;;23.87;42.88;101246.56;5106020;28;20035;-42
2022/01/10 05:11:00;;;;;;;396.52;290.73;;;;;;;23.82;42.81;101254.34;5106089;28;20117;-42
2022/01/10 05:13:29;;;;;;;395.55;294.45;;;;;;;23.80;43.03;101255.16;5124005;28;20118;-42
2022/01/10 05:15:57;;;;;;;399.65;291.35;;;;;;;23.87;42.79;101257.03;5123573;28;20042;-42
2022/01/10 05:18:26;;;;;;;400.20;297.25;;;;;;;23.87;42.54;101266.63;5124509;28;20034;-45
2022/01/10 05:20:54;;;;;;;396.63;292.48;;;;;;;23.88;42.66;101268.38;5124425;28;20373;-42
2022/01/10 05:23:23;;;;;;;405.48;298.35;;;;;;;23.89;42.50;101265.81;5124029;28;20084;-42
2022/01/10 05:25:51;;;;;;;406.30;299.65;;;;;;;23.88;42.56;101265.78;5124619;27;20031;-42
2022/01/10 05:28:19;;;;;;;411.52;302.55;;;;;;;23.89;43.03;101278.03;5128072;27;20046;-41
2022/01/10 05:30:48;;;;;;;412.58;301.70;;;;;;;23.80;42.96;101281.34;5127531;27;20035;-42
2022/01/10 05:33:17;;;;;;;417.38;307.10;;;;;;;23.87;42.78;101288.47;5127677;27;20038;-42
2022/01/10 05:35:46;;;;;;;415.70;305.48;;;;;;;23.86;42.79;101289.34;5127745;27;20031;-47
2022/01/10 05:38:14;;;;;;;418.35;307.10;;;;;;;23.85;42.59;101282.31;5128089;27;20031;-43
2022/01/10 05:40:43;;;;;;;405.15;301.25;;;;;;;23.89;42.55;101294.63;5128051;27;20023;-41
2022/01/10 05:43:12;;;;;;;404.80;300.05;;;;;;;23.88;43.00;101290.25;5127562;27;20042;-41
2022/01/10 05:45:44;;;;;;;406.25;301.38;;;;;;;23.94;42.77;101298.22;5127519;27;20031;-41
2022/01/10 05:48:20;;;;;;;409.98;304.35;;;;;;;23.90;42.55;101300.75;5127073;27;20031;-44
2022/01/10 05:50:50;;;;;;;412.45;309.38;;;;;;;23.85;42.95;101297.16;5127110;27;20019;-41
2022/01/10 05:53:19;;;;;;;404.85;309.63;;;;;;;23.87;42.63;101295.44;5127506;27;20038;-42
2022/01/10 05:55:48;;;;;;;420.80;310.40;;;;;;;23.85;42.74;101294.53;5109140;27;20027;-41
2022/01/10 05:58:17;;;;;;;408.40;304.30;;;;;;;23.88;42.58;101305.06;5127526;27;21001;-44
2022/01/10 06:00:47;;;;;;;417.00;305.33;;;;;;;23.88;42.87;101300.72;5127157;27;20100;-41
2022/01/10 06:03:15;;;;;;;418.95;314.10;;;;;;;23.87;43.01;101313.78;5127308;27;20023;-42
2022/01/10 06:05:44;;;;;;;420.30;310.48;;;;;;;23.82;42.76;101313.72;5127213;27;20108;-42
2022/01/10 06:08:12;;;;;;;419.30;311.77;;;;;;;23.87;42.68;101324.25;5127154;27;20039;-41
2022/01/10 06:10:40;;;;;;;414.92;308.75;;;;;;;23.85;42.92;101320.72;5127040;27;20110;-41
2022/01/10 06:13:09;;;;;;;415.52;310.30;;;;;;;23.88;43.04;101321.69;5127014;27;20100;-42
2022/01/10 06:15:38;;;;;;;421.65;313.92;;;;;;;23.84;43.02;101325.09;5127055;27;20027;-42
2022/01/10 06:18:06;;;;;;;415.75;311.52;;;;;;;23.94;42.80;101328.78;5127307;27;20027;-47
2022/01/10 06:20:35;;;;;;;410.13;306.42;;;;;;;23.86;43.04;101332.97;5126710;27;20031;-41
2022/01/10 06:23:03;;;;;;;415.23;306.50;;;;;;;23.84;42.69;101335.59;5127227;27;20027;-42
2022/01/10 06:25:31;;;;;;;416.38;314.13;;;;;;;23.86;42.94;101336.50;5126837;27;20026;-44
2022/01/10 06:27:59;;;;;;;424.95;314.65;;;;;;;23.91;42.94;101339.19;5108335;27;20027;-43
2022/01/10 06:30:27;;;;;;;413.55;308.90;;;;;;;23.89;42.50;101347.03;5126815;27;20103;-51
2022/01/10 06:32:56;;;;;;;416.02;305.60;;;;;;;23.88;42.94;101339.13;5108701;27;20030;-53
2022/01/10 06:35:23;;;;;;;413.65;307.13;;;;;;;23.90;42.68;101345.28;5126566;27;20031;-45
2022/01/10 06:37:52;;;;;;;415.02;313.70;;;;;;;23.89;43.04;101340.91;5124898;27;20110;-46
2022/01/10 06:40:21;;;;;;;408.98;303.48;;;;;;;23.85;42.85;101352.16;5126972;27;20035;-49
2022/01/10 06:42:50;;;;;;;425.65;310.85;;;;;;;23.88;42.98;101357.47;5126771;27;20019;-49
2022/01/10 06:45:19;;;;;;;410.40;301.80;;;;;;;23.92;42.66;101365.41;5126631;27;20035;-46
2022/01/10 06:47:49;;;;;;;412.10;306.20;;;;;;;23.95;42.63;101364.63;5126606;27;20023;-42
2022/01/10 06:50:17;;;;;;;412.13;303.90;;;;;;;23.92;43.00;101369.78;5126505;27;20804;-42
2022/01/10 06:52:46;;;;;;;412.05;309.40;;;;;;;23.92;42.78;101382.88;5126569;27;20023;-43
2022/01/10 06:55:14;;;;;;;408.23;300.52;;;;;;;23.99;42.43;101381.31;5126343;27;20583;-43
2022/01/10 06:57:43;;;;;;;417.42;301.83;;;;;;;23.92;42.73;101386.38;5126402;27;20117;-45
2022/01/10 07:00:12;;;;;;;425.15;311.05;;;;;;;23.98;42.75;101390.91;5126313;27;20027;-43
2022/01/10 07:02:40;;;;;;;404.50;304.17;;;;;;;23.95;42.98;101394.31;5126000;27;20023;-51
2022/01/10 07:05:08;;;;;;;406.58;293.30;;;;;;;24.00;42.78;101402.28;5125648;27;20047;-42
2022/01/10 07:07:37;;;;;;;414.75;304.60;;;;;;;23.99;42.33;101400.56;5126173;27;20034;-54
2022/01/10 07:10:06;;;;;;;408.27;307.05;;;;;;;23.99;42.67;101404.88;5107839;27;20392;-45
2022/01/10 07:12:34;;;;;;;412.80;310.02;;;;;;;23.95;42.66;101411.78;5125289;27;20063;-42
2022/01/10 07:15:04;;;;;;;415.27;300.98;;;;;;;24.01;42.45;101419.78;5125848;27;20061;-42
2022/01/10 07:17:33;;;;;;;410.58;306.15;;;;;;;23.98;42.97;101422.38;5126618;27;20023;-52
2022/01/10 07:20:02;;;;;;;416.02;311.38;;;;;;;24.01;43.01;101422.41;5126205;27;20035;-42
2022/01/10 07:22:30;;;;;;;409.73;303.70;;;;;;;24.02;42.90;101418.94;5125554;27;20042;-45
2022/01/10 07:24:59;;;;;;;405.92;294.35;;;;;;;24.00;42.80;101425.00;5125325;27;20027;-42
2022/01/10 07:27:27;;;;;;;408.50;291.92;;;;;;;23.97;42.43;101425.84;5124812;27;20082;-51
2022/01/10 07:29:56;;;;;;;404.45;292.02;;;;;;;24.02;42.98;101436.41;5124853;27;20023;-42
2022/01/10 07:32:29;;;;;;;389.35;286.20;;;;;;;24.02;42.55;101444.28;5125245;27;20392;-48
2022/01/10 07:34:58;;;;;;;401.27;298.58;;;;;;;24.01;42.67;101445.13;5125593;27;20023;-52
2022/01/10 07:37:27;;;;;;;388.30;286.70;;;;;;;23.98;42.78;101448.56;5125583;27;20034;-53
2022/01/10 07:39:55;;;;;;;397.38;283.70;;;;;;;24.04;42.91;101451.28;5125227;27;20027;-42
2022/01/10 07:42:24;;;;;;;405.05;292.48;;;;;;;24.05;42.81;101449.59;5107056;27;20026;-53
2022/01/10 07:44:52;;;;;;;401.85;288.17;;;;;;;24.02;43.20;101452.13;5125527;27;20383;-41
2022/01/10 07:47:21;;;;;;;403.52;288.77;;;;;;;24.02;42.98;101454.75;5125649;27;20023;-42
2022/01/10 07:49:50;;;;;;;402.95;291.20;;;;;;;24.03;43.30;101469.63;5124999;27;20023;-42
2022/01/10 07:52:19;;;;;;;393.90;290.52;;;;;;;24.07;43.01;101474.97;5125135;27;20039;-47
2022/01/10 07:54:48;;;;;;;406.23;296.85;;;;;;;24.07;43.22;101482.81;5125287;27;20027;-42
2022/01/10 08:00:39;;;;;;;410.00;305.25;;;;;;;24.08;42.98;101500.31;5124883;27;20038;-47
2022/01/10 08:03:08;;;;;;;414.80;296.42;;;;;;;24.08;43.06;101505.56;5124767;27;20107;-42
2022/01/10 08:05:35;;;;;;;417.80;305.42;;;;;;;24.08;43.45;101502.94;5124108;27;20050;-41
2022/01/10 08:08:04;;;;;;;422.20;307.55;;;;;;;24.09;43.48;101512.56;5125094;27;20031;-52
2022/01/10 08:10:32;;;;;;;412.38;304.13;;;;;;;24.11;43.01;101513.50;5106300;27;20019;-42
2022/01/10 08:13:01;;;;;;;420.30;308.30;;;;;;;24.15;43.01;101530.16;5124585;27;20047;-42
2022/01/10 08:15:30;;;;;;;433.77;312.60;;;;;;;24.14;43.33;101536.25;5123970;27;20025;-44
2022/01/10 08:17:59;;;;;;;429.13;310.45;;;;;;;24.17;42.93;101538.03;5124758;27;20026;-41
2022/01/10 08:20:27;;;;;;;423.75;310.48;;;;;;;24.16;43.25;101538.94;5124500;27;20035;-42
2022/01/10 08:22:55;;;;;;;433.95;319.70;;;;;;;24.17;43.31;101549.44;5124427;27;20091;-41
2022/01/10 08:25:24;;;;;;;413.55;303.83;;;;;;;24.17;43.41;101545.91;5124369;27;20033;-46
2022/01/10 08:27:52;;;;;;;433.42;313.50;;;;;;;24.17;42.87;101540.66;5124767;27;20484;-45
2022/01/10 08:30:20;;;;;;;432.63;317.77;;;;;;;24.19;43.36;101547.72;5124643;27;20512;-44
2022/01/10 08:32:50;;;;;;;437.42;324.40;;;;;;;24.19;43.21;101555.59;5124332;27;20062;-46
2022/01/10 08:35:19;;;;;;;434.90;321.27;;;;;;;24.19;43.02;101557.31;5124811;27;20031;-51
2022/01/10 08:37:46;;;;;;;431.58;324.50;;;;;;;24.16;43.46;101563.38;5124896;27;20042;-41
2022/01/10 08:40:16;;;;;;;436.58;319.27;;;;;;;24.19;43.39;101573.94;5124294;27;20027;-41
2022/01/10 08:42:44;;;;;;;444.45;326.83;;;;;;;24.18;43.31;101577.41;5124440;27;20027;-42
2022/01/10 08:45:13;;;;;;;444.98;324.95;;;;;;;24.22;43.19;101579.25;5124305;27;20043;-44
2022/01/10 08:47:41;;;;;;;439.17;321.23;;;;;;;24.25;43.18;101592.41;5124625;28;20023;-46
2022/01/10 08:50:11;;;;;;;436.27;324.58;;;;;;;24.21;43.29;101587.06;5124470;28;20091;-46
2022/01/10 08:52:40;;;;;;;436.88;323.48;;;;;;;24.21;43.23;101593.22;5124135;28;20035;-42
2022/01/10 08:55:10;;;;;;;441.80;323.50;;;;;;;24.21;42.98;101590.59;5124394;28;20031;-41
2022/01/10 08:57:39;;;;;;;427.80;319.73;;;;;;;24.23;42.92;101606.34;5106215;28;20606;-41
2022/01/10 09:00:08;;;;;;;453.55;328.55;;;;;;;24.25;43.29;101608.13;5124480;27;20065;-42
2022/01/10 09:02:36;;;;;;;442.90;324.90;;;;;;;24.24;43.35;101605.50;5127943;27;20027;-41
2022/01/10 09:05:06;;;;;;;434.98;323.27;;;;;;;24.26;43.10;101614.28;5127914;27;20047;-42
2022/01/10 09:07:34;;;;;;;449.90;329.05;;;;;;;24.26;43.22;101617.78;5128242;27;20027;-41
2022/01/10 09:10:02;;;;;;;440.30;328.52;;;;;;;24.24;42.97;101613.38;5128083;27;20039;-42
2022/01/10 09:12:31;;;;;;;447.83;327.52;;;;;;;24.30;43.02;101620.47;5127894;27;20027;-44
2022/01/10 09:14:59;;;;;;;448.70;330.70;;;;;;;24.31;42.99;101631.03;5128448;27;20031;-42
2022/01/10 09:17:28;;;;;;;441.55;324.48;;;;;;;24.30;43.16;101631.88;5128210;27;20460;-41
2022/01/10 09:19:57;;;;;;;432.08;323.77;;;;;;;24.25;43.20;101631.75;5127482;27;20164;-41
2022/01/10 09:22:25;;;;;;;440.33;323.17;;;;;;;24.27;42.99;101634.41;5128090;27;20023;-42
2022/01/10 09:24:52;;;;;;;435.35;322.83;;;;;;;24.28;43.03;101644.06;5127439;27;20038;-42
2022/01/10 09:27:21;;;;;;;430.00;320.98;;;;;;;24.29;43.25;101643.19;5109997;27;20062;-51
2022/01/10 09:29:49;;;;;;;436.92;322.58;;;;;;;24.28;43.21;101637.06;5126739;27;20030;-41
2022/01/10 09:32:17;;;;;;;439.67;327.13;;;;;;;24.29;43.26;101645.81;5127532;27;20092;-41
2022/01/10 09:34:45;;;;;;;439.02;321.05;;;;;;;24.31;43.25;101648.47;5127947;27;20053;-42
2022/01/10 09:37:13;;;;;;;434.85;325.58;;;;;;;24.33;42.97;101657.25;5127539;27;20550;-42
2022/01/10 09:39:41;;;;;;;434.88;320.95;;;;;;;24.33;42.71;101652.88;5128079;27;20062;-43
2022/01/10 09:42:11;;;;;;;435.38;323.85;;;;;;;24.30;42.86;101660.72;5127773;27;20058;-50
2022/01/10 09:44:40;;;;;;;440.77;327.95;;;;;;;24.31;43.21;101657.25;5092955;27;20033;-48
2022/01/10 09:47:08;;;;;;;450.55;329.15;;;;;;;24.35;42.77;101655.56;5109369;27;20035;-48
2022/01/10 09:49:36;;;;;;;447.30;326.25;;;;;;;24.35;43.06;101663.44;5127509;27;20472;-42
2022/01/10 09:52:05;;;;;;;448.83;329.05;;;;;;;24.31;43.28;101654.63;5092154;27;20041;-43
2022/01/10 09:54:34;;;;;;;446.77;333.50;;;;;;;24.31;42.80;101652.00;5109020;27;20050;-41
2022/01/10 09:57:03;;;;;;;439.73;331.58;;;;;;;24.34;42.73;101662.53;5126764;27;20038;-46
2022/01/10 09:59:31;;;;;;;440.48;325.95;;;;;;;24.33;42.83;101662.50;5126818;27;20182;-42
2022/01/10 10:01:59;;;;;;;441.75;332.05;;;;;;;24.36;43.24;101671.31;5108817;27;20484;-41
2022/01/10 10:04:28;;;;;;;435.75;324.45;;;;;;;24.36;43.13;101673.06;5126724;27;20829;-54
2022/01/10 10:06:57;;;;;;;442.13;325.60;;;;;;;24.30;42.82;101673.81;5127257;27;21123;-41
2022/01/10 10:09:27;;;;;;;437.27;325.80;;;;;;;24.34;43.23;101680.88;5108243;27;20061;-42
2022/01/10 10:11:56;;;;;;;435.77;331.63;;;;;;;24.35;42.96;101680.03;5126823;27;20027;-50
2022/01/10 10:14:25;;;;;;;452.52;334.40;;;;;;;24.38;42.69;101681.84;5127370;27;20035;-41
2022/01/10 10:16:57;;;;;;;445.20;330.20;;;;;;;24.39;43.16;101679.25;5108457;27;20023;-41
2022/01/10 10:19:27;;;;;;;441.02;326.45;;;;;;;24.33;43.24;101681.72;5108870;27;20027;-41
2022/01/10 10:21:57;;;;;;;444.30;324.98;;;;;;;24.35;42.91;101693.13;5127043;27;20034;-49
2022/01/10 10:27:50;;;;;;;435.77;319.52;;;;;;;24.38;43.04;101694.97;5126108;27;20503;-51
2022/01/10 10:30:20;;;;;;;425.80;311.08;;;;;;;24.38;42.75;101702.84;5127118;27;20552;-54
2022/01/10 10:32:50;;;;;;;418.40;314.50;;;;;;;24.39;43.00;101705.47;5126627;27;20055;-51
2022/01/10 10:35:19;;;;;;;422.05;316.60;;;;;;;24.40;43.05;101698.53;5127223;27;20030;-51
2022/01/10 10:37:48;;;;;;;412.65;301.95;;;;;;;24.37;42.67;101703.69;5126960;27;20054;-45
2022/01/10 10:40:17;;;;;;;420.67;307.30;;;;;;;24.39;42.52;101707.22;5126523;27;20174;-42
2022/01/10 10:42:46;;;;;;;420.70;304.20;;;;;;;24.40;42.85;101714.25;5126657;27;20023;-41
2022/01/10 10:45:15;;;;;;;416.65;307.50;;;;;;;24.44;42.73;101716.06;5126195;27;20457;-48
2022/01/10 10:47:45;;;;;;;425.15;311.92;;;;;;;24.42;42.58;101717.78;5108471;27;20985;-49
2022/01/10 10:50:13;;;;;;;410.17;304.02;;;;;;;24.43;42.57;101717.81;5126590;27;20023;-52
2022/01/10 10:52:42;;;;;;;404.65;296.70;;;;;;;24.41;42.90;101726.47;5125932;27;20106;-43
2022/01/10 10:55:14;;;;;;;407.80;297.70;;;;;;;24.40;42.99;101719.50;5126132;27;20039;-43
2022/01/10 10:57:43;;;;;;;403.52;292.83;;;;;;;24.42;42.97;101718.66;5126140;27;20472;-45
2022/01/10 11:00:15;;;;;;;409.27;296.98;;;;;;;24.44;42.66;101721.31;5108516;27;20039;-46
2022/01/10 11:02:44;;;;;;;403.55;295.42;;;;;;;24.43;42.63;101725.69;5108469;27;20031;-44
2022/01/10 11:05:14;;;;;;;395.88;288.45;;;;;;;24.48;42.85;101732.78;5125803;27;20531;-42
2022/01/10 11:07:43;;;;;;;384.83;279.92;;;;;;;24.45;42.72;101730.97;5126101;27;20110;-42
2022/01/10 11:10:10;;;;;;;395.27;283.48;;;;;;;24.48;42.42;101731.03;5125769;27;20027;-42
2022/01/10 11:12:41;;;;;;;397.20;283.92;;;;;;;24.48;42.42;101743.28;5126154;27;20488;-47
2022/01/10 11:15:11;;;;;;;399.50;284.90;;;;;;;24.47;42.54;101742.38;5107696;27;20523;-41
2022/01/10 11:17:42;;;;;;;390.65;282.65;;;;;;;24.48;42.43;101743.28;5107966;27;20400;-41
2022/01/10 11:20:12;;;;;;;391.90;279.60;;;;;;;24.51;42.32;101738.06;5125814;27;20059;-42
2022/01/10 11:22:42;;;;;;;392.20;283.27;;;;;;;24.49;42.26;101735.44;5125708;27;20088;-44
2022/01/10 11:25:23;;;;;;;380.35;275.58;;;;;;;24.45;42.25;101738.81;5107093;27;20019;-41
2022/01/10 11:27:53;;;;;;;389.08;280.42;;;;;;;24.48;42.52;101738.03;5107523;27;20479;-42